Time;durP1;ratioP1;P1;durP2;ratioP2;P2;SDS_P1;SDS_P2;PMS_P1;PMS_P2;Temp;Humidity;BMP_temperature;BMP_pressure;BME280_temperature;BME280_humidity;BME280_pressure;Samples;Min_cycle;Max_cycle;Signal;HPM_P1;HPM_P2
2022/08/07 00:01:14;;;;;;;;;0.33;0.33;;;;;24.53;51.12;99181.78;4955752;27;102174;-60
2022/08/07 00:04:03;;;;;;;;;0.67;0.00;;;;;24.55;51.01;99179.56;4951366;28;103181;-59
2022/08/07 00:06:31;;;;;;;;;0.00;0.00;;;;;24.54;51.09;99185.38;4953694;28;102206;-60
2022/08/07 00:09:00;;;;;;;;;1.00;1.00;;;;;24.55;51.13;99184.25;4955614;28;104339;-59
2022/08/07 00:11:47;;;;;;;;;1.00;1.00;;;;;24.55;50.97;99195.31;4951333;28;103628;-59
2022/08/07 00:14:25;;;;;;;;;1.00;1.00;;;;;24.54;50.80;99188.97;4949428;28;102139;-59
2022/08/07 00:16:58;;;;;;;;;1.33;1.00;;;;;24.54;50.72;99188.97;4960579;28;102635;-59
2022/08/07 00:19:27;;;;;;;;;0.67;0.67;;;;;24.54;50.64;99188.97;4954920;28;109062;-59
2022/08/07 00:22:15;;;;;;;;;0.00;0.00;;;;;24.54;50.86;99194.47;4955164;28;103013;-59
2022/08/07 00:25:04;;;;;;;;;1.00;1.00;;;;;24.54;50.82;99191.72;4951421;28;102122;-59
2022/08/07 00:27:33;;;;;;;;;1.00;1.00;;;;;24.53;50.91;99192.84;4961513;28;102447;-61
2022/08/07 00:30:19;;;;;;;;;0.00;0.00;;;;;24.52;50.92;99191.19;4954677;28;104046;-60
2022/08/07 00:32:52;;;;;;;;;0.67;0.67;;;;;24.52;51.10;99195.88;4950026;28;102080;-60
2022/08/07 00:35:20;;;;;;;;;1.00;1.00;;;;;24.50;50.97;99193.38;4952476;28;102002;-60
2022/08/07 00:37:48;;;;;;;;;0.67;0.67;;;;;24.49;50.97;99194.50;4954126;28;102466;-60
2022/08/07 00:40:16;;;;;;;;;2.00;1.00;;;;;24.50;50.96;99198.09;4955023;28;104036;-61
2022/08/07 00:43:04;;;;;;;;;1.00;0.33;;;;;24.49;50.72;99188.97;4938196;28;102164;-60
2022/08/07 00:45:37;;;;;;;;;1.00;1.00;;;;;24.50;50.99;99193.38;4957359;27;102153;-60
2022/08/07 00:48:04;;;;;;;;;1.00;1.00;;;;;24.51;51.03;99194.22;4949564;28;102452;-60
2022/08/07 00:50:44;;;;;;;;;1.67;1.00;;;;;24.50;50.71;99201.69;4939825;28;104062;-60
2022/08/07 00:53:18;;;;;;;;;1.00;0.67;;;;;24.51;50.80;99196.97;4953096;28;102363;-61
2022/08/07 00:55:46;;;;;;;;;0.33;0.33;;;;;24.50;50.76;99196.16;4953922;28;102577;-61
2022/08/07 00:58:30;;;;;;;;;1.00;1.00;;;;;24.50;51.01;99190.63;4939105;28;102688;-60
2022/08/07 01:00:57;;;;;;;;;1.00;1.00;;;;;24.51;50.97;99194.22;4952001;28;104307;-60
2022/08/07 01:03:25;;;;;;;;;0.00;0.00;;;;;24.50;50.75;99203.63;4950115;28;102222;-59
2022/08/07 01:06:12;;;;;;;;;1.00;1.00;;;;;24.49;50.95;99199.22;4936639;28;102351;-60
2022/08/07 01:08:41;;;;;;;;;1.00;1.00;;;;;24.48;50.97;99203.06;4960536;28;102733;-60
2022/08/07 01:11:21;;;;;;;;;1.00;1.00;;;;;24.46;50.85;99197.81;4931775;28;104136;-60
2022/08/07 01:14:08;;;;;;;;;1.00;1.00;;;;;24.45;51.04;99194.22;4927706;28;103319;-60
2022/08/07 01:16:36;;;;;;;;;1.00;1.00;;;;;24.44;50.98;99194.50;4956909;28;102305;-60
2022/08/07 01:19:04;;;;;;;;;0.00;0.00;;;;;24.43;50.76;99193.69;4950411;28;102160;-60
2022/08/07 01:21:45;;;;;;;;;1.00;1.00;;;;;24.45;50.75;99193.41;4948528;28;104274;-60
2022/08/07 01:24:14;;;;;;;;;1.00;0.00;;;;;24.45;50.91;99196.97;4954441;27;102586;-61
2022/08/07 01:26:48;;;;;;;;;2.00;1.00;;;;;24.47;50.75;99199.47;4945988;28;102257;-60
2022/08/07 01:29:19;;;;;;;;;2.00;1.33;;;;;24.45;50.52;99196.19;4957171;28;103945;-60
2022/08/07 01:31:48;;;;;;;;;1.00;1.00;;;;;24.44;50.77;99194.50;4939365;28;104256;-60
2022/08/07 01:34:16;;;;;;;;;1.00;1.00;;;;;24.44;50.94;99195.34;4950915;28;102466;-60
2022/08/07 01:36:47;;;;;;;;;1.00;1.00;;;;;24.44;50.83;99189.81;4952892;28;103240;-60
2022/08/07 01:39:26;;;;;;;;;1.00;0.67;;;;;24.45;50.81;99185.13;4954106;28;102240;-60
2022/08/07 01:42:13;;;;;;;;;1.00;1.00;;;;;24.44;50.74;99188.97;4951793;28;108876;-60
2022/08/07 01:45:00;;;;;;;;;1.00;1.00;;;;;24.42;50.85;99185.66;4955491;27;102519;-60
2022/08/07 01:47:28;;;;;;;;;0.00;0.00;;;;;24.38;50.82;99182.63;4949699;28;102409;-60
2022/08/07 01:50:15;;;;;;;;;0.33;0.33;;;;;24.38;50.86;99174.31;4946393;28;102533;-62
2022/08/07 01:52:55;;;;;;;;;1.00;1.00;;;;;24.38;51.06;99179.03;4949198;28;109880;-62
2022/08/07 01:55:33;;;;;;;;;2.00;1.00;;;;;24.36;50.82;99176.53;4942410;28;101891;-62
2022/08/07 01:58:01;;;;;;;;;0.00;0.00;;;;;24.38;51.05;99182.63;4936016;28;102402;-63
2022/08/07 02:00:50;;;;;;;;;1.00;0.67;;;;;24.38;50.86;99177.09;4941539;28;102204;-62
2022/08/07 02:03:23;;;;;;;;;1.00;1.00;;;;;24.39;50.89;99180.69;4937496;28;109082;-62
2022/08/07 02:06:12;;;;;;;;;1.00;1.00;;;;;24.40;50.71;99182.34;4926762;28;102290;-62
2022/08/07 02:08:59;;;;;;;;;0.67;0.67;;;;;24.40;50.65;99171.28;4922389;28;102127;-60
2022/08/07 02:11:32;;;;;;;;;1.00;1.00;;;;;24.41;50.89;99181.22;4938479;28;103467;-62
2022/08/07 02:14:19;;;;;;;;;0.67;0.67;;;;;24.37;50.92;99182.88;4941331;28;105769;-63
2022/08/07 02:17:08;;;;;;;;;1.00;1.00;;;;;24.36;50.91;99181.25;4912699;28;102624;-62
2022/08/07 02:19:37;;;;;;;;;1.00;1.00;;;;;24.37;50.76;99188.41;4939902;28;102192;-62
2022/08/07 02:22:24;;;;;;;;;1.00;1.00;;;;;24.33;50.77;99190.91;4932533;28;102185;-63
2022/08/07 02:24:53;;;;;;;;;2.00;1.00;;;;;24.33;50.95;99188.16;4931592;28;108988;-63
2022/08/07 02:27:21;;;;;;;;;1.00;1.00;;;;;24.31;50.84;99187.59;4931051;28;102976;-63
2022/08/07 02:29:49;;;;;;;;;1.00;1.00;;;;;24.32;50.82;99191.19;4922351;28;102036;-63
2022/08/07 02:32:20;;;;;;;;;1.00;1.00;;;;;24.34;50.85;99194.50;4921836;28;102342;-63
2022/08/07 02:34:49;;;;;;;;;0.00;0.00;;;;;24.34;50.99;99188.97;4931165;28;104077;-62
2022/08/07 02:37:17;;;;;;;;;0.00;0.00;;;;;24.33;50.81;99192.84;4959043;28;102208;-63
2022/08/07 02:39:45;;;;;;;;;1.00;1.00;;;;;24.34;50.75;99191.75;4924624;28;102369;-62
2022/08/07 02:42:32;;;;;;;;;1.00;1.00;;;;;24.34;50.58;99183.44;4929254;28;102552;-62
2022/08/07 02:45:03;;;;;;;;;1.00;1.00;;;;;24.34;50.60;99188.97;4933249;28;104047;-62
2022/08/07 02:47:50;;;;;;;;;1.00;1.00;;;;;24.34;50.84;99184.28;4934502;28;102469;-63
2022/08/07 02:50:17;;;;;;;;;1.00;1.00;;;;;24.33;50.74;99192.84;4939637;28;102217;-63
2022/08/07 02:53:02;;;;;;;;;0.00;0.00;;;;;24.30;50.67;99191.47;4928747;28;102106;-63
2022/08/07 02:55:34;;;;;;;;;1.00;1.00;;;;;24.29;50.64;99189.81;4939555;28;110031;-63
2022/08/07 02:58:21;;;;;;;;;0.67;0.67;;;;;24.26;50.85;99193.13;4958721;28;102373;-62
2022/08/07 03:00:54;;;;;;;;;1.00;1.00;;;;;24.26;50.92;99190.38;4949151;28;105356;-62
2022/08/07 03:03:22;;;;;;;;;0.67;0.67;;;;;24.27;50.80;99188.44;4951257;28;102415;-62
2022/08/07 03:05:55;;;;;;;;;2.00;1.00;;;;;24.23;50.70;99196.41;4949033;28;109107;-62
2022/08/07 03:08:23;;;;;;;;;1.00;1.00;;;;;24.23;50.73;99188.13;4976668;28;102391;-62
2022/08/07 03:10:55;;;;;;;;;1.00;1.00;;;;;24.24;50.85;99191.72;4964561;28;102204;-62
2022/08/07 03:13:22;;;;;;;;;1.00;1.00;;;;;24.25;50.75;99185.94;4955679;28;102334;-62
2022/08/07 03:15:49;;;;;;;;;1.00;1.00;;;;;24.25;50.73;99197.00;4959316;28;104110;-63
2022/08/07 03:18:24;;;;;;;;;1.00;1.00;;;;;24.25;50.79;99185.94;4945982;28;102404;-62
2022/08/07 03:21:01;;;;;;;;;1.00;1.00;;;;;24.27;50.78;99183.72;4939397;28;102658;-62
2022/08/07 03:23:28;;;;;;;;;1.00;1.00;;;;;24.26;50.83;99186.78;4951549;27;103474;-62
2022/08/07 03:26:17;;;;;;;;;1.00;1.00;;;;;24.25;50.85;99193.41;4946791;28;105851;-62
2022/08/07 03:28:49;;;;;;;;;1.00;1.00;;;;;24.23;50.78;99184.53;4956466;28;102236;-61
2022/08/07 03:31:17;;;;;;;;;1.00;1.00;;;;;24.21;50.80;99187.59;4948312;28;102626;-62
2022/08/07 03:34:00;;;;;;;;;1.00;1.00;;;;;24.19;50.81;99180.66;4961137;28;102746;-62
2022/08/07 03:36:28;;;;;;;;;1.33;1.33;;;;;24.16;50.92;99184.81;4960676;28;109322;-62
2022/08/07 03:38:58;;;;;;;;;1.00;1.00;;;;;24.18;50.70;99195.63;4943682;28;103130;-62
2022/08/07 03:41:31;;;;;;;;;0.00;0.00;;;;;24.16;50.75;99190.34;4941798;28;102182;-63
2022/08/07 03:44:13;;;;;;;;;0.00;0.00;;;;;24.16;50.94;99184.81;4952281;28;102574;-62
2022/08/07 03:46:41;;;;;;;;;0.00;0.00;;;;;24.17;50.92;99197.53;4954232;28;104183;-62
2022/08/07 03:49:28;;;;;;;;;1.00;1.00;;;;;24.19;50.90;99197.25;4955008;28;102547;-62
2022/08/07 03:51:57;;;;;;;;;1.00;1.00;;;;;24.19;50.81;99192.56;4958599;28;102365;-62
2022/08/07 03:54:28;;;;;;;;;1.00;1.00;;;;;24.20;50.84;99187.84;4971387;28;102654;-62
2022/08/07 03:57:15;;;;;;;;;0.67;0.00;;;;;24.20;50.51;99193.38;4952823;28;109940;-63
2022/08/07 04:00:02;;;;;;;;;1.00;1.00;;;;;24.20;50.63;99199.75;4951557;28;102305;-62
2022/08/07 04:02:30;;;;;;;;;1.00;0.33;;;;;24.18;50.65;99196.41;4965277;28;102481;-63
2022/08/07 04:04:57;;;;;;;;;2.00;1.00;;;;;24.17;50.67;99200.31;4962592;28;102191;-62
2022/08/07 04:07:24;;;;;;;;;1.00;1.00;;;;;24.16;50.82;99203.34;4951467;28;108935;-62
2022/08/07 04:10:07;;;;;;;;;0.67;0.67;;;;;24.14;50.81;99197.22;4945535;28;102269;-62
2022/08/07 04:12:45;;;;;;;;;1.00;1.00;;;;;24.12;50.63;99211.31;4953827;28;102276;-62
2022/08/07 04:15:13;;;;;;;;;1.00;1.00;;;;;24.12;50.71;99202.19;4948175;28;102613;-63
2022/08/07 04:17:41;;;;;;;;;1.00;1.00;;;;;24.14;50.69;99211.03;4952336;28;104076;-62
2022/08/07 04:20:28;;;;;;;;;1.00;1.00;;;;;24.12;50.83;99200.25;4940062;28;102538;-62
2022/08/07 04:22:57;;;;;;;;;2.00;2.00;;;;;24.11;50.81;99206.06;4959260;28;102639;-62
2022/08/07 04:25:27;;;;;;;;;0.33;0.33;;;;;24.13;50.84;99209.38;4955183;28;102453;-62
2022/08/07 04:27:55;;;;;;;;;1.00;1.00;;;;;24.14;50.54;99216.56;4959820;28;108757;-62
2022/08/07 04:30:26;;;;;;;;;1.00;1.00;;;;;24.14;50.61;99216.56;4952824;28;102111;-62
2022/08/07 04:33:09;;;;;;;;;1.00;0.33;;;;;24.14;50.43;99213.78;4941482;28;102163;-63
2022/08/07 04:35:42;;;;;;;;;1.00;1.00;;;;;24.14;50.65;99228.44;4958894;28;102703;-62
2022/08/07 04:38:16;;;;;;;;;1.00;1.00;;;;;24.15;50.74;99226.50;4945113;28;104147;-62
2022/08/07 04:40:44;;;;;;;;;1.00;1.00;;;;;24.14;50.65;99227.59;4955860;28;102439;-62
2022/08/07 04:43:27;;;;;;;;;1.00;1.00;;;;;24.12;50.67;99227.06;4953144;28;102938;-63
2022/08/07 04:46:27;;;;;;;;;1.00;1.00;;;;;24.10;50.65;99226.50;4941480;28;103307;-63
2022/08/07 04:49:18;;;;;;;;;1.00;1.00;;;;;24.09;50.88;99233.16;4948695;28;109167;-62
2022/08/07 04:52:30;;;;;;;;;1.67;1.00;;;;;24.10;50.86;99234.78;4951576;28;102655;-62
2022/08/07 04:55:28;;;;;;;;;2.00;1.33;;;;;24.09;50.94;99231.19;4951519;28;102594;-62
2022/08/07 04:58:30;;;;;;;;;1.00;1.00;;;;;24.10;50.82;99226.50;4934004;28;103389;-63
2022/08/07 05:01:30;;;;;;;;;1.67;1.67;;;;;24.10;50.72;99221.81;4954429;28;109951;-63
2022/08/07 05:04:57;;;;;;;;;2.00;1.00;;;;;24.11;50.85;99222.63;4956268;28;102137;-62
2022/08/07 05:07:35;;;;;;;;;0.00;0.00;;;;;24.13;50.54;99237.03;4877204;28;102255;-62
2022/08/07 05:10:21;;;;;;;;;0.67;0.67;;;;;24.12;50.45;99229.81;4876960;28;102699;-62
2022/08/07 05:12:51;;;;;;;;;1.00;1.00;;;;;24.12;50.51;99232.59;4962437;28;104055;-62
2022/08/07 05:15:29;;;;;;;;;1.00;1.00;;;;;24.09;50.39;99225.66;4941130;28;103340;-63
2022/08/07 05:18:02;;;;;;;;;1.67;1.67;;;;;24.09;50.58;99233.16;4948561;28;102595;-62
2022/08/07 05:20:40;;;;;;;;;0.67;0.67;;;;;24.08;50.72;99228.72;4936115;28;102407;-63
2022/08/07 05:23:19;;;;;;;;;2.00;1.00;;;;;24.07;50.67;99233.41;4946143;28;104341;-62
2022/08/07 05:25:54;;;;;;;;;1.33;1.33;;;;;24.07;50.72;99235.34;4950587;28;101962;-63
2022/08/07 05:28:41;;;;;;;;;2.00;1.00;;;;;24.06;50.91;99234.50;4960949;28;102070;-62
2022/08/07 05:31:17;;;;;;;;;1.00;1.00;;;;;24.07;50.83;99238.94;4969368;28;102465;-62
2022/08/07 05:33:46;;;;;;;;;1.00;1.00;;;;;24.07;50.58;99243.63;4949442;28;104128;-63
2022/08/07 05:36:27;;;;;;;;;0.67;0.67;;;;;24.08;50.69;99248.91;4951612;28;103208;-62
2022/08/07 05:39:00;;;;;;;;;1.00;1.00;;;;;24.08;50.62;99245.28;4940255;28;101969;-62
2022/08/07 05:41:48;;;;;;;;;0.67;0.67;;;;;24.09;50.61;99242.25;4933341;28;102157;-61
2022/08/07 05:44:29;;;;;;;;;1.67;1.67;;;;;24.08;50.58;99237.00;4938174;28;109329;-62
2022/08/07 05:46:58;;;;;;;;;1.00;1.00;;;;;24.10;50.47;99243.06;4955488;28;102513;-61
2022/08/07 05:49:26;;;;;;;;;1.33;1.00;;;;;24.09;50.39;99246.97;4950805;28;102472;-62
2022/08/07 05:52:07;;;;;;;;;1.00;1.00;;;;;24.10;50.50;99249.44;4939409;28;102472;-62
2022/08/07 05:54:37;;;;;;;;;1.00;1.00;;;;;24.10;50.46;99245.84;4962687;28;104145;-61
2022/08/07 05:57:21;;;;;;;;;2.67;2.00;;;;;24.08;50.56;99240.59;4951849;28;102549;-62
2022/08/07 05:59:52;;;;;;;;;1.00;1.00;;;;;24.08;50.75;99240.59;4954214;28;102614;-60
2022/08/07 06:02:25;;;;;;;;;1.00;1.00;;;;;24.07;50.45;99233.41;4954910;28;102362;-59
2022/08/07 06:04:57;;;;;;;;;1.00;1.00;;;;;24.08;50.56;99239.78;4958475;28;109628;-60
2022/08/07 06:07:24;;;;;;;;;1.00;1.00;;;;;24.09;50.56;99238.69;4946593;28;102111;-61
2022/08/07 06:10:11;;;;;;;;;1.00;1.00;;;;;24.10;50.64;99245.84;4955839;28;101994;-60
2022/08/07 06:12:41;;;;;;;;;1.33;0.00;;;;;24.12;50.75;99251.94;4954489;28;102635;-60
2022/08/07 06:15:08;;;;;;;;;1.00;1.00;;;;;24.11;50.72;99245.56;4962216;28;104092;-61
2022/08/07 06:17:42;;;;;;;;;2.00;2.00;;;;;24.14;50.61;99245.00;4960777;28;102265;-60
2022/08/07 06:20:24;;;;;;;;;1.00;1.00;;;;;24.15;50.39;99252.22;4950886;28;103185;-60
2022/08/07 06:23:11;;;;;;;;;1.33;1.00;;;;;24.15;50.26;99251.38;4955206;28;103289;-61
2022/08/07 06:25:58;;;;;;;;;1.00;1.00;;;;;24.17;50.30;99252.81;4948750;28;110361;-60
2022/08/07 06:28:25;;;;;;;;;1.00;1.00;;;;;24.18;50.16;99248.13;4954399;28;102259;-61
2022/08/07 06:30:54;;;;;;;;;1.67;1.00;;;;;24.19;50.14;99250.59;4957187;28;102617;-60
2022/08/07 06:33:21;;;;;;;;;0.00;0.00;;;;;24.20;50.29;99254.19;4954099;28;102487;-60
2022/08/07 06:35:48;;;;;;;;;1.00;1.00;;;;;24.19;50.31;99249.75;4941099;28;103558;-60
2022/08/07 06:38:36;;;;;;;;;1.00;1.00;;;;;24.18;50.46;99248.13;4946556;28;102173;-61
2022/08/07 06:41:06;;;;;;;;;0.67;0.67;;;;;24.19;50.37;99238.69;4962382;28;102620;-60
2022/08/07 06:43:38;;;;;;;;;1.00;0.67;;;;;24.19;50.24;99242.31;4949148;28;105486;-61
2022/08/07 06:46:13;;;;;;;;;1.00;1.00;;;;;24.21;50.27;99253.09;4931789;28;104430;-61
2022/08/07 06:48:40;;;;;;;;;0.33;0.33;;;;;24.21;50.45;99251.16;4952103;28;102190;-60
2022/08/07 06:51:16;;;;;;;;;1.00;1.00;;;;;24.22;50.37;99247.31;4952393;28;103496;-60
2022/08/07 06:54:02;;;;;;;;;0.67;0.67;;;;;24.23;50.07;99243.41;4957054;27;102193;-60
2022/08/07 06:56:49;;;;;;;;;2.00;1.00;;;;;24.25;50.32;99252.28;4942085;28;107585;-59
2022/08/07 06:59:21;;;;;;;;;0.33;0.33;;;;;24.28;50.29;99250.88;4946209;28;102382;-60
2022/08/07 07:02:21;;;;;;;;;1.00;1.00;;;;;24.28;50.30;99254.47;4944318;28;102828;-60
2022/08/07 07:05:09;;;;;;;;;1.00;1.00;;;;;24.28;50.22;99250.88;4951276;28;104199;-60
2022/08/07 07:07:39;;;;;;;;;1.00;1.00;;;;;24.29;50.22;99258.06;4959766;28;104065;-60
2022/08/07 07:10:33;;;;;;;;;1.00;1.00;;;;;24.30;50.08;99257.81;4952394;28;102349;-60
2022/08/07 07:13:12;;;;;;;;;1.67;1.67;;;;;24.30;50.00;99259.75;4951254;28;102072;-60
2022/08/07 07:15:42;;;;;;;;;1.00;1.00;;;;;24.31;50.21;99255.88;4952865;28;102098;-60
2022/08/07 07:18:24;;;;;;;;;2.00;1.67;;;;;24.31;50.02;99250.34;4946215;28;104028;-60
2022/08/07 07:21:16;;;;;;;;;0.00;0.00;;;;;24.31;50.10;99250.34;4951204;28;102559;-60
2022/08/07 07:23:45;;;;;;;;;1.00;1.00;;;;;24.31;50.09;99250.34;4955318;28;102386;-60
2022/08/07 07:26:32;;;;;;;;;1.00;1.00;;;;;24.31;50.26;99250.34;4937897;28;102197;-60
2022/08/07 07:29:12;;;;;;;;;1.00;1.00;;;;;24.32;50.26;99246.47;4943556;28;104065;-61
2022/08/07 07:32:00;;;;;;;;;1.00;1.00;;;;;24.34;50.17;99252.56;4939208;28;102419;-60
2022/08/07 07:34:29;;;;;;;;;0.00;0.00;;;;;24.33;50.12;99250.88;4949173;28;102171;-59
2022/08/07 07:36:59;;;;;;;;;0.67;0.00;;;;;24.33;49.87;99243.44;4963006;28;102331;-60
2022/08/07 07:39:46;;;;;;;;;0.67;0.67;;;;;24.34;50.12;99241.50;4960844;27;110028;-60
2022/08/07 07:42:22;;;;;;;;;1.00;1.00;;;;;24.34;49.88;99238.72;4945898;28;102215;-60
2022/08/07 07:45:02;;;;;;;;;0.00;0.00;;;;;24.35;50.05;99246.75;4959488;28;102246;-60
2022/08/07 07:47:29;;;;;;;;;0.00;0.00;;;;;24.35;50.41;99249.53;4946321;28;102201;-58
2022/08/07 07:50:16;;;;;;;;;1.00;1.00;;;;;24.36;50.24;99253.13;4953493;28;105570;-60
2022/08/07 07:53:03;;;;;;;;;1.00;1.00;;;;;24.36;50.03;99242.06;4947446;28;102574;-60
2022/08/07 07:55:39;;;;;;;;;1.00;1.00;;;;;24.37;49.94;99240.94;4960449;28;102266;-60
2022/08/07 07:58:25;;;;;;;;;0.00;0.00;;;;;24.37;49.87;99239.00;4951140;28;103047;-60
2022/08/07 08:00:53;;;;;;;;;0.00;0.00;;;;;24.37;50.03;99239.00;4948825;28;104063;-60
2022/08/07 08:03:20;;;;;;;;;0.00;0.00;;;;;24.38;50.05;99239.84;4948947;28;102631;-60
2022/08/07 08:06:08;;;;;;;;;0.00;0.00;;;;;24.37;49.92;99250.06;4941424;28;102625;-60
2022/08/07 08:08:40;;;;;;;;;1.00;1.00;;;;;24.38;50.07;99242.59;4937128;28;102979;-60
2022/08/07 08:11:08;;;;;;;;;1.00;1.00;;;;;24.38;49.88;99240.69;4963357;28;104051;-60
2022/08/07 08:13:44;;;;;;;;;0.67;0.00;;;;;24.39;49.92;99236.81;4951668;28;102449;-60
2022/08/07 08:16:28;;;;;;;;;1.00;1.00;;;;;24.40;49.94;99245.94;4950708;28;102441;-60
2022/08/07 08:18:57;;;;;;;;;0.00;0.00;;;;;24.40;50.24;99248.69;4938614;28;102230;-60
2022/08/07 08:27:38;;;;;;;;;1.00;1.00;;;;;24.39;49.90;99245.09;4946655;28;102277;-60
2022/08/07 08:30:11;;;;;;;;;0.33;0.33;;;;;24.40;49.97;99255.06;4953767;28;102171;-60
2022/08/07 08:32:45;;;;;;;;;1.00;1.00;;;;;24.40;50.06;99265.28;4948407;28;104093;-59
2022/08/07 08:35:21;;;;;;;;;0.00;0.00;;;;;24.40;49.89;99260.59;4955638;28;102469;-60
2022/08/07 08:37:48;;;;;;;;;0.00;0.00;;;;;24.40;50.05;99254.22;4963429;28;102577;-59
2022/08/07 08:40:35;;;;;;;;;0.00;0.00;;;;;24.39;50.46;99256.16;4958766;28;102858;-60
2022/08/07 08:43:40;;;;;;;;;1.00;1.00;;;;;24.39;50.07;99252.56;4930929;28;109328;-60
2022/08/07 08:46:39;;;;;;;;;0.00;0.00;;;;;24.41;50.03;99265.00;4869209;28;103121;-60
2022/08/07 08:49:30;;;;;;;;;1.00;1.00;;;;;24.41;50.02;99262.22;4951094;28;102121;-60
2022/08/07 08:52:29;;;;;;;;;1.00;0.33;;;;;24.41;49.96;99261.41;4950715;28;102597;-60
2022/08/07 08:55:04;;;;;;;;;0.00;0.00;;;;;24.41;49.95;99259.47;4969407;28;109822;-60
2022/08/07 08:57:39;;;;;;;;;1.00;1.00;;;;;24.41;49.89;99265.00;4950597;28;102091;-59
2022/08/07 09:00:08;;;;;;;;;1.33;0.67;;;;;24.42;50.01;99263.06;4944946;28;102294;-60
2022/08/07 09:02:38;;;;;;;;;0.67;0.67;;;;;24.41;50.21;99262.22;4954287;28;102427;-60
2022/08/07 09:05:33;;;;;;;;;0.00;0.00;;;;;24.41;50.21;99264.16;4953599;28;104206;-60
2022/08/07 09:08:11;;;;;;;;;0.00;0.00;;;;;24.41;49.94;99264.16;4952704;28;102542;-59
2022/08/07 09:11:10;;;;;;;;;1.00;1.00;;;;;24.42;49.78;99263.06;4947620;28;102234;-61
2022/08/07 09:13:56;;;;;;;;;0.00;0.00;;;;;24.41;49.96;99266.94;4955250;28;102984;-60
2022/08/07 09:17:03;;;;;;;;;0.33;0.33;;;;;24.40;50.22;99263.34;4950269;28;104154;-59
2022/08/07 09:19:40;;;;;;;;;1.00;1.00;;;;;24.41;49.83;99258.63;4951479;28;102544;-60
2022/08/07 09:22:40;;;;;;;;;1.00;0.33;;;;;24.41;50.11;99255.88;4950363;28;102534;-60
2022/08/07 09:25:49;;;;;;;;;1.00;1.00;;;;;24.42;49.90;99265.81;4948094;28;102289;-60
2022/08/07 09:28:40;;;;;;;;;0.33;0.33;;;;;24.42;50.29;99265.81;4942643;28;108896;-60
2022/08/07 09:31:41;;;;;;;;;1.33;1.00;;;;;24.42;50.01;99252.00;4955660;28;102094;-60
2022/08/07 09:34:45;;;;;;;;;0.00;0.00;;;;;24.42;50.02;99257.53;4950968;28;102593;-60
2022/08/07 09:37:27;;;;;;;;;0.67;0.00;;;;;24.42;49.78;99257.53;4918887;28;103401;-60
2022/08/07 09:40:45;;;;;;;;;0.00;0.00;;;;;24.42;50.11;99255.59;4948529;28;110613;-60
2022/08/07 09:43:22;;;;;;;;;0.00;0.00;;;;;24.41;49.93;99245.63;4933318;28;103536;-61
2022/08/07 09:46:21;;;;;;;;;0.33;0.33;;;;;24.43;50.09;99245.38;4948515;28;102121;-60
2022/08/07 09:49:17;;;;;;;;;0.00;0.00;;;;;24.42;50.01;99241.78;4948567;28;102118;-60
2022/08/07 09:52:04;;;;;;;;;0.00;0.00;;;;;24.43;49.89;99248.13;4936832;28;110022;-60
2022/08/07 09:54:58;;;;;;;;;0.33;0.00;;;;;24.44;49.71;99241.50;4954549;28;102313;-60
2022/08/07 09:57:59;;;;;;;;;1.00;1.00;;;;;24.45;49.83;99232.13;4934792;28;102913;-60
2022/08/07 10:00:29;;;;;;;;;1.00;1.00;;;;;24.46;50.00;99231.00;4943996;28;102326;-60
2022/08/07 10:03:25;;;;;;;;;0.33;0.33;;;;;24.45;49.92;99224.63;4958327;28;109287;-60
2022/08/07 10:06:39;;;;;;;;;1.00;1.00;;;;;24.46;49.87;99225.47;4942749;28;102336;-60
2022/08/07 10:09:44;;;;;;;;;1.00;0.00;;;;;24.47;49.96;99221.59;4937354;28;103333;-60
2022/08/07 10:12:53;;;;;;;;;0.00;0.00;;;;;24.47;49.86;99221.59;4955075;27;102590;-61
2022/08/07 10:15:26;;;;;;;;;0.00;0.00;;;;;24.48;49.96;99216.91;4955112;28;108985;-60
2022/08/07 10:18:27;;;;;;;;;0.67;0.67;;;;;24.48;49.76;99212.19;4951934;28;102178;-59
2022/08/07 10:21:01;;;;;;;;;0.33;0.33;;;;;24.48;50.13;99220.50;4951851;28;102217;-60
2022/08/07 10:24:00;;;;;;;;;0.00;0.00;;;;;24.49;49.95;99213.03;4963676;28;102285;-60
2022/08/07 10:27:25;;;;;;;;;0.00;0.00;;;;;24.49;49.81;99218.56;4958534;28;109093;-60
2022/08/07 10:30:34;;;;;;;;;0.00;0.00;;;;;24.51;49.66;99216.34;4939738;28;102880;-60
2022/08/07 10:33:01;;;;;;;;;0.00;0.00;;;;;24.50;49.94;99209.13;4958597;28;103378;-60
2022/08/07 10:35:49;;;;;;;;;0.67;0.67;;;;;24.50;49.79;99204.44;4955210;28;102096;-60
2022/08/07 10:38:23;;;;;;;;;0.67;0.00;;;;;24.51;49.98;99200.59;4955815;28;109010;-60
2022/08/07 10:41:39;;;;;;;;;0.00;0.00;;;;;24.50;49.66;99204.44;4959840;28;102537;-60
2022/08/07 10:44:46;;;;;;;;;0.67;0.67;;;;;24.50;49.95;99201.69;4940828;28;103101;-60
2022/08/07 10:47:29;;;;;;;;;1.00;1.00;;;;;24.52;49.70;99201.41;4951380;28;102247;-60
2022/08/07 10:50:23;;;;;;;;;0.67;0.67;;;;;24.52;49.69;99193.94;4951011;28;109812;-60
2022/08/07 10:53:07;;;;;;;;;0.00;0.00;;;;;24.53;49.58;99183.72;4929837;28;102751;-60
2022/08/07 10:55:42;;;;;;;;;0.00;0.00;;;;;24.53;49.79;99184.56;4950244;28;102550;-60
2022/08/07 10:58:34;;;;;;;;;0.00;0.00;;;;;24.55;49.59;99179.56;4946186;28;104072;-60
2022/08/07 11:01:24;;;;;;;;;1.00;1.00;;;;;24.54;49.63;99180.66;4958087;28;108498;-60
2022/08/07 11:04:19;;;;;;;;;0.33;0.33;;;;;24.55;49.78;99175.97;4949150;28;102499;-60
2022/08/07 11:07:37;;;;;;;;;0.00;0.00;;;;;24.56;49.59;99172.94;4946345;28;102405;-59
2022/08/07 11:10:45;;;;;;;;;0.00;0.00;;;;;24.57;49.89;99182.88;4952428;28;102224;-60
2022/08/07 11:13:35;;;;;;;;;0.00;0.00;;;;;24.58;49.88;99178.19;4949911;27;108778;-60
2022/08/07 11:16:35;;;;;;;;;0.00;0.00;;;;;24.58;49.49;99169.91;4954503;28;102543;-60
2022/08/07 11:19:13;;;;;;;;;0.00;0.00;;;;;24.59;49.40;99169.59;4947863;28;102202;-60
2022/08/07 11:22:25;;;;;;;;;0.00;0.00;;;;;24.60;49.66;99178.72;4962231;28;103209;-60
2022/08/07 11:25:43;;;;;;;;;0.00;0.00;;;;;24.60;49.88;99171.25;4963371;28;109045;-60
2022/08/07 11:28:21;;;;;;;;;0.00;0.00;;;;;24.61;49.53;99170.16;4951624;28;102367;-60
2022/08/07 11:30:53;;;;;;;;;0.00;0.00;;;;;24.61;49.45;99164.63;4944099;28;102669;-60
2022/08/07 11:34:00;;;;;;;;;0.00;0.00;;;;;24.62;49.32;99166.28;4955935;28;102536;-60
2022/08/07 11:37:03;;;;;;;;;1.00;1.00;;;;;24.63;49.37;99154.09;4967185;28;109082;-60
2022/08/07 11:39:59;;;;;;;;;0.00;0.00;;;;;24.62;49.56;99155.22;4950142;28;103058;-59
2022/08/07 11:42:32;;;;;;;;;0.00;0.00;;;;;24.63;49.48;99153.31;4947612;28;102536;-60
2022/08/07 11:45:17;;;;;;;;;0.00;0.00;;;;;24.65;49.66;99151.06;4948871;28;104628;-57
2022/08/07 11:48:30;;;;;;;;;0.33;0.33;;;;;24.66;49.51;99147.19;4951398;28;104055;-60
2022/08/07 11:51:18;;;;;;;;;0.00;0.00;;;;;24.66;49.55;99144.44;4882686;28;102212;-60
2022/08/07 11:54:32;;;;;;;;;0.00;0.00;;;;;24.67;49.52;99146.94;4949064;28;102517;-60
2022/08/07 11:57:19;;;;;;;;;0.33;0.33;;;;;24.68;49.32;99144.97;4957245;28;102198;-60
2022/08/07 12:00:14;;;;;;;;;0.00;0.00;;;;;24.69;49.40;99150.22;4949858;28;110944;-60
2022/08/07 12:02:56;;;;;;;;;0.00;0.00;;;;;24.69;49.62;99150.22;4950283;28;102337;-60
2022/08/07 12:05:55;;;;;;;;;0.00;0.00;;;;;24.71;49.40;99134.19;4966347;28;102571;-60
2022/08/07 12:08:38;;;;;;;;;0.67;0.67;;;;;24.71;49.41;99139.72;4954232;28;102850;-60
2022/08/07 12:11:27;;;;;;;;;0.00;0.00;;;;;24.72;49.48;99130.31;4937683;28;109782;-59
2022/08/07 12:14:02;;;;;;;;;0.00;0.00;;;;;24.73;49.30;99122.84;4959701;28;102239;-60
2022/08/07 12:16:41;;;;;;;;;0.00;0.00;;;;;24.74;49.66;99122.56;4959843;28;102471;-60
2022/08/07 12:19:50;;;;;;;;;0.00;0.00;;;;;24.75;49.53;99123.41;4950327;28;102292;-60
2022/08/07 12:22:55;;;;;;;;;0.00;0.00;;;;;24.75;49.24;99110.41;4946483;28;108950;-60
2022/08/07 12:25:56;;;;;;;;;0.00;0.00;;;;;24.78;49.33;99122.81;4958828;28;102298;-60
2022/08/07 12:29:12;;;;;;;;;0.00;0.00;;;;;24.78;49.18;99112.59;4949995;28;102337;-60
2022/08/07 12:31:51;;;;;;;;;0.00;0.00;;;;;24.79;49.26;99117.03;4949195;28;102569;-60
2022/08/07 12:34:35;;;;;;;;;0.00;0.00;;;;;24.79;49.35;99117.03;4959564;28;108927;-60
2022/08/07 12:37:02;;;;;;;;;0.00;0.00;;;;;24.80;49.42;99109.56;4951604;28;103843;-60